sensor_id;sensor_type;location;lat;lon;timestamp;P1;durP1;ratioP1;P2;durP2;ratioP2
27305;SDS011;14792;50.886;6.468;2022-12-29T00:01:00;0.60;;;0.30;;
27305;SDS011;14792;50.886;6.468;2022-12-29T00:04:01;0.42;;;0.30;;
27305;SDS011;14792;50.886;6.468;2022-12-29T00:07:02;0.40;;;0.10;;
27305;SDS011;14792;50.886;6.468;2022-12-29T00:10:04;0.37;;;0.30;;
27305;SDS011;14792;50.886;6.468;2022-12-29T00:13:06;0.15;;;0.13;;
27305;SDS011;14792;50.886;6.468;2022-12-29T00:16:25;0.10;;;0.10;;
27305;SDS011;14792;50.886;6.468;2022-12-29T00:19:27;0.23;;;0.20;;
27305;SDS011;14792;50.886;6.468;2022-12-29T00:22:46;0.15;;;0.15;;
27305;SDS011;14792;50.886;6.468;2022-12-29T00:26:12;0.20;;;0.20;;
27305;SDS011;14792;50.886;6.468;2022-12-29T00:29:31;0.10;;;0.10;;
27305;SDS011;14792;50.886;6.468;2022-12-29T00:32:51;0.20;;;0.15;;
27305;SDS011;14792;50.886;6.468;2022-12-29T00:36:34;0.33;;;0.10;;
27305;SDS011;14792;50.886;6.468;2022-12-29T00:39:26;2.05;;;0.23;;
27305;SDS011;14792;50.886;6.468;2022-12-29T00:42:46;1.67;;;0.20;;
27305;SDS011;14792;50.886;6.468;2022-12-29T00:46:05;0.20;;;0.10;;
27305;SDS011;14792;50.886;6.468;2022-12-29T00:49:07;0.88;;;0.20;;
27305;SDS011;14792;50.886;6.468;2022-12-29T00:52:26;0.40;;;0.10;;
27305;SDS011;14792;50.886;6.468;2022-12-29T00:55:28;0.70;;;0.20;;
27305;SDS011;14792;50.886;6.468;2022-12-29T00:58:30;0.20;;;0.20;;
27305;SDS011;14792;50.886;6.468;2022-12-29T01:01:31;0.95;;;0.20;;
27305;SDS011;14792;50.886;6.468;2022-12-29T01:04:33;0.10;;;0.10;;
27305;SDS011;14792;50.886;6.468;2022-12-29T01:07:34;0.10;;;0.10;;
27305;SDS011;14792;50.886;6.468;2022-12-29T01:10:36;0.65;;;0.20;;
27305;SDS011;14792;50.886;6.468;2022-12-29T01:13:37;0.30;;;0.28;;
27305;SDS011;14792;50.886;6.468;2022-12-29T01:16:39;1.85;;;0.30;;
27305;SDS011;14792;50.886;6.468;2022-12-29T01:19:41;1.45;;;0.20;;
27305;SDS011;14792;50.886;6.468;2022-12-29T01:22:42;0.85;;;0.40;;
27305;SDS011;14792;50.886;6.468;2022-12-29T01:25:44;1.75;;;0.30;;
27305;SDS011;14792;50.886;6.468;2022-12-29T01:28:45;0.30;;;0.30;;
27305;SDS011;14792;50.886;6.468;2022-12-29T01:31:47;2.35;;;0.30;;
27305;SDS011;14792;50.886;6.468;2022-12-29T01:34:48;1.62;;;0.60;;
27305;SDS011;14792;50.886;6.468;2022-12-29T01:37:50;1.98;;;0.65;;
27305;SDS011;14792;50.886;6.468;2022-12-29T01:40:52;3.37;;;0.80;;
27305;SDS011;14792;50.886;6.468;2022-12-29T01:43:55;1.90;;;0.80;;
27305;SDS011;14792;50.886;6.468;2022-12-29T01:46:58;3.10;;;0.70;;
27305;SDS011;14792;50.886;6.468;2022-12-29T01:50:01;3.47;;;0.75;;
27305;SDS011;14792;50.886;6.468;2022-12-29T01:53:01;1.00;;;0.62;;
27305;SDS011;14792;50.886;6.468;2022-12-29T01:56:04;3.02;;;0.90;;
27305;SDS011;14792;50.886;6.468;2022-12-29T01:59:07;1.47;;;0.80;;
27305;SDS011;14792;50.886;6.468;2022-12-29T02:02:05;2.00;;;0.65;;
27305;SDS011;14792;50.886;6.468;2022-12-29T02:05:10;0.90;;;0.57;;
27305;SDS011;14792;50.886;6.468;2022-12-29T02:08:09;1.77;;;0.68;;
27305;SDS011;14792;50.886;6.468;2022-12-29T02:11:10;1.30;;;0.50;;
27305;SDS011;14792;50.886;6.468;2022-12-29T02:14:12;2.37;;;0.70;;
27305;SDS011;14792;50.886;6.468;2022-12-29T02:23:59;2.35;;;0.75;;
27305;SDS011;14792;50.886;6.468;2022-12-29T02:27:01;2.40;;;0.60;;
27305;SDS011;14792;50.886;6.468;2022-12-29T02:30:04;1.70;;;1.00;;
27305;SDS011;14792;50.886;6.468;2022-12-29T02:33:20;1.15;;;0.60;;
27305;SDS011;14792;50.886;6.468;2022-12-29T02:42:50;0.85;;;0.37;;
27305;SDS011;14792;50.886;6.468;2022-12-29T02:45:58;0.37;;;0.37;;
27305;SDS011;14792;50.886;6.468;2022-12-29T02:49:06;0.90;;;0.30;;
27305;SDS011;14792;50.886;6.468;2022-12-29T02:52:10;0.93;;;0.40;;
27305;SDS011;14792;50.886;6.468;2022-12-29T02:55:21;1.15;;;0.50;;
27305;SDS011;14792;50.886;6.468;2022-12-29T02:58:23;2.65;;;0.35;;
27305;SDS011;14792;50.886;6.468;2022-12-29T03:08:06;2.87;;;0.40;;
27305;SDS011;14792;50.886;6.468;2022-12-29T03:11:09;1.42;;;0.40;;
27305;SDS011;14792;50.886;6.468;2022-12-29T03:18:15;0.35;;;0.30;;
27305;SDS011;14792;50.886;6.468;2022-12-29T03:21:30;0.47;;;0.40;;
27305;SDS011;14792;50.886;6.468;2022-12-29T03:24:31;0.30;;;0.30;;
27305;SDS011;14792;50.886;6.468;2022-12-29T03:27:33;0.53;;;0.30;;
27305;SDS011;14792;50.886;6.468;2022-12-29T03:30:33;0.98;;;0.42;;
27305;SDS011;14792;50.886;6.468;2022-12-29T03:33:35;1.75;;;0.30;;
27305;SDS011;14792;50.886;6.468;2022-12-29T03:36:42;1.45;;;0.40;;
27305;SDS011;14792;50.886;6.468;2022-12-29T03:39:38;0.62;;;0.20;;
27305;SDS011;14792;50.886;6.468;2022-12-29T03:42:39;3.37;;;0.40;;
27305;SDS011;14792;50.886;6.468;2022-12-29T03:45:41;1.75;;;0.47;;
27305;SDS011;14792;50.886;6.468;2022-12-29T03:48:43;0.70;;;0.40;;
27305;SDS011;14792;50.886;6.468;2022-12-29T03:51:44;0.70;;;0.20;;
27305;SDS011;14792;50.886;6.468;2022-12-29T03:54:46;1.82;;;0.60;;
27305;SDS011;14792;50.886;6.468;2022-12-29T03:57:47;1.55;;;0.75;;
27305;SDS011;14792;50.886;6.468;2022-12-29T04:00:49;0.93;;;0.50;;
27305;SDS011;14792;50.886;6.468;2022-12-29T04:03:50;0.60;;;0.40;;
27305;SDS011;14792;50.886;6.468;2022-12-29T04:06:52;0.80;;;0.40;;
27305;SDS011;14792;50.886;6.468;2022-12-29T04:09:54;0.65;;;0.47;;
27305;SDS011;14792;50.886;6.468;2022-12-29T04:12:56;2.22;;;0.70;;
27305;SDS011;14792;50.886;6.468;2022-12-29T04:15:57;2.27;;;0.70;;
27305;SDS011;14792;50.886;6.468;2022-12-29T04:18:59;0.82;;;0.50;;
27305;SDS011;14792;50.886;6.468;2022-12-29T04:22:01;3.98;;;0.50;;
27305;SDS011;14792;50.886;6.468;2022-12-29T04:25:02;3.52;;;0.80;;
27305;SDS011;14792;50.886;6.468;2022-12-29T04:28:04;0.90;;;0.50;;
27305;SDS011;14792;50.886;6.468;2022-12-29T04:31:05;2.87;;;0.65;;
27305;SDS011;14792;50.886;6.468;2022-12-29T04:34:07;4.33;;;0.70;;
27305;SDS011;14792;50.886;6.468;2022-12-29T04:37:08;2.10;;;0.60;;
27305;SDS011;14792;50.886;6.468;2022-12-29T04:40:10;1.10;;;0.60;;
27305;SDS011;14792;50.886;6.468;2022-12-29T04:43:12;2.30;;;0.80;;
27305;SDS011;14792;50.886;6.468;2022-12-29T04:46:13;1.80;;;0.60;;
27305;SDS011;14792;50.886;6.468;2022-12-29T04:49:15;2.27;;;0.75;;
27305;SDS011;14792;50.886;6.468;2022-12-29T04:52:16;2.42;;;0.88;;
27305;SDS011;14792;50.886;6.468;2022-12-29T04:55:18;1.72;;;0.70;;
27305;SDS011;14792;50.886;6.468;2022-12-29T04:58:20;0.72;;;0.40;;
27305;SDS011;14792;50.886;6.468;2022-12-29T05:01:21;1.32;;;0.42;;
27305;SDS011;14792;50.886;6.468;2022-12-29T05:04:23;4.95;;;0.70;;
27305;SDS011;14792;50.886;6.468;2022-12-29T05:07:26;2.30;;;0.80;;
27305;SDS011;14792;50.886;6.468;2022-12-29T05:10:27;3.00;;;0.50;;
27305;SDS011;14792;50.886;6.468;2022-12-29T05:13:29;1.52;;;0.45;;
27305;SDS011;14792;50.886;6.468;2022-12-29T05:16:30;1.65;;;0.50;;
27305;SDS011;14792;50.886;6.468;2022-12-29T05:19:32;0.60;;;0.33;;
27305;SDS011;14792;50.886;6.468;2022-12-29T05:22:33;2.02;;;0.93;;
27305;SDS011;14792;50.886;6.468;2022-12-29T05:25:35;3.00;;;0.70;;
27305;SDS011;14792;50.886;6.468;2022-12-29T05:28:37;2.00;;;0.60;;
27305;SDS011;14792;50.886;6.468;2022-12-29T05:31:38;2.30;;;0.55;;
27305;SDS011;14792;50.886;6.468;2022-12-29T05:34:40;3.15;;;0.80;;
27305;SDS011;14792;50.886;6.468;2022-12-29T05:37:41;4.87;;;1.00;;
27305;SDS011;14792;50.886;6.468;2022-12-29T05:40:43;4.08;;;0.72;;
27305;SDS011;14792;50.886;6.468;2022-12-29T05:43:45;0.90;;;0.50;;
27305;SDS011;14792;50.886;6.468;2022-12-29T05:46:46;1.82;;;0.47;;
27305;SDS011;14792;50.886;6.468;2022-12-29T05:49:48;0.80;;;0.50;;
27305;SDS011;14792;50.886;6.468;2022-12-29T05:52:49;3.70;;;0.70;;
27305;SDS011;14792;50.886;6.468;2022-12-29T05:55:51;2.52;;;0.80;;
27305;SDS011;14792;50.886;6.468;2022-12-29T05:58:53;0.93;;;0.60;;
27305;SDS011;14792;50.886;6.468;2022-12-29T06:01:54;2.02;;;0.80;;
27305;SDS011;14792;50.886;6.468;2022-12-29T06:04:56;6.10;;;0.85;;
27305;SDS011;14792;50.886;6.468;2022-12-29T06:07:58;3.52;;;0.78;;
27305;SDS011;14792;50.886;6.468;2022-12-29T06:10:59;3.00;;;1.15;;
27305;SDS011;14792;50.886;6.468;2022-12-29T06:14:01;1.37;;;0.62;;
27305;SDS011;14792;50.886;6.468;2022-12-29T06:17:03;4.65;;;0.70;;
27305;SDS011;14792;50.886;6.468;2022-12-29T06:20:04;2.62;;;0.95;;
27305;SDS011;14792;50.886;6.468;2022-12-29T06:23:06;2.25;;;0.60;;
27305;SDS011;14792;50.886;6.468;2022-12-29T06:26:07;2.33;;;0.65;;
27305;SDS011;14792;50.886;6.468;2022-12-29T06:29:09;4.20;;;0.80;;
27305;SDS011;14792;50.886;6.468;2022-12-29T06:32:11;1.87;;;0.60;;
27305;SDS011;14792;50.886;6.468;2022-12-29T06:35:12;3.40;;;0.95;;
27305;SDS011;14792;50.886;6.468;2022-12-29T06:38:14;0.60;;;0.40;;
27305;SDS011;14792;50.886;6.468;2022-12-29T06:41:15;3.58;;;0.72;;
27305;SDS011;14792;50.886;6.468;2022-12-29T06:44:17;4.65;;;0.90;;
27305;SDS011;14792;50.886;6.468;2022-12-29T06:47:18;4.17;;;0.57;;
27305;SDS011;14792;50.886;6.468;2022-12-29T06:50:20;3.42;;;0.78;;
27305;SDS011;14792;50.886;6.468;2022-12-29T06:53:22;4.42;;;0.62;;
27305;SDS011;14792;50.886;6.468;2022-12-29T06:56:25;4.00;;;0.90;;
27305;SDS011;14792;50.886;6.468;2022-12-29T06:59:27;3.72;;;0.98;;
27305;SDS011;14792;50.886;6.468;2022-12-29T07:02:28;4.15;;;0.68;;
27305;SDS011;14792;50.886;6.468;2022-12-29T07:05:30;2.20;;;0.78;;
27305;SDS011;14792;50.886;6.468;2022-12-29T07:08:31;4.37;;;0.40;;
27305;SDS011;14792;50.886;6.468;2022-12-29T07:11:33;3.22;;;0.82;;
27305;SDS011;14792;50.886;6.468;2022-12-29T07:14:35;8.48;;;1.12;;
27305;SDS011;14792;50.886;6.468;2022-12-29T07:17:36;3.40;;;0.60;;
27305;SDS011;14792;50.886;6.468;2022-12-29T07:20:38;4.45;;;0.80;;
27305;SDS011;14792;50.886;6.468;2022-12-29T07:23:39;2.47;;;0.80;;
27305;SDS011;14792;50.886;6.468;2022-12-29T07:26:41;3.47;;;0.80;;
27305;SDS011;14792;50.886;6.468;2022-12-29T07:29:43;5.05;;;1.10;;
27305;SDS011;14792;50.886;6.468;2022-12-29T07:32:44;2.45;;;0.70;;
27305;SDS011;14792;50.886;6.468;2022-12-29T07:35:46;5.55;;;0.80;;
27305;SDS011;14792;50.886;6.468;2022-12-29T07:38:47;4.15;;;0.65;;
27305;SDS011;14792;50.886;6.468;2022-12-29T07:41:49;8.00;;;1.25;;
27305;SDS011;14792;50.886;6.468;2022-12-29T07:44:51;4.12;;;1.10;;
27305;SDS011;14792;50.886;6.468;2022-12-29T07:47:52;3.77;;;0.95;;
27305;SDS011;14792;50.886;6.468;2022-12-29T07:50:54;7.78;;;0.95;;
27305;SDS011;14792;50.886;6.468;2022-12-29T07:53:55;5.12;;;1.10;;
27305;SDS011;14792;50.886;6.468;2022-12-29T07:56:57;6.60;;;1.20;;
27305;SDS011;14792;50.886;6.468;2022-12-29T07:59:59;3.75;;;0.95;;
27305;SDS011;14792;50.886;6.468;2022-12-29T08:03:00;7.40;;;1.22;;
27305;SDS011;14792;50.886;6.468;2022-12-29T08:06:02;5.85;;;1.25;;
27305;SDS011;14792;50.886;6.468;2022-12-29T08:09:03;7.62;;;1.17;;
27305;SDS011;14792;50.886;6.468;2022-12-29T08:12:05;5.85;;;1.22;;
27305;SDS011;14792;50.886;6.468;2022-12-29T08:15:07;4.97;;;0.65;;
27305;SDS011;14792;50.886;6.468;2022-12-29T08:18:08;5.78;;;1.15;;
27305;SDS011;14792;50.886;6.468;2022-12-29T08:21:10;4.15;;;1.02;;
27305;SDS011;14792;50.886;6.468;2022-12-29T08:24:11;6.20;;;1.07;;
27305;SDS011;14792;50.886;6.468;2022-12-29T08:27:13;5.72;;;1.50;;
27305;SDS011;14792;50.886;6.468;2022-12-29T08:30:15;4.85;;;0.98;;
27305;SDS011;14792;50.886;6.468;2022-12-29T08:33:16;7.40;;;1.35;;
27305;SDS011;14792;50.886;6.468;2022-12-29T08:36:18;6.45;;;1.60;;
27305;SDS011;14792;50.886;6.468;2022-12-29T08:39:19;5.58;;;0.95;;
27305;SDS011;14792;50.886;6.468;2022-12-29T08:42:21;6.00;;;0.95;;
27305;SDS011;14792;50.886;6.468;2022-12-29T08:45:23;5.45;;;1.40;;
27305;SDS011;14792;50.886;6.468;2022-12-29T08:48:28;5.72;;;1.25;;
27305;SDS011;14792;50.886;6.468;2022-12-29T08:51:29;6.45;;;1.20;;
27305;SDS011;14792;50.886;6.468;2022-12-29T08:54:31;4.72;;;1.05;;
27305;SDS011;14792;50.886;6.468;2022-12-29T08:57:32;4.50;;;1.27;;
27305;SDS011;14792;50.886;6.468;2022-12-29T09:00:34;5.85;;;1.60;;
27305;SDS011;14792;50.886;6.468;2022-12-29T09:03:36;11.12;;;1.47;;
27305;SDS011;14792;50.886;6.468;2022-12-29T09:06:37;8.35;;;1.32;;
27305;SDS011;14792;50.886;6.468;2022-12-29T09:09:39;5.85;;;1.52;;
27305;SDS011;14792;50.886;6.468;2022-12-29T09:12:40;9.00;;;1.40;;
27305;SDS011;14792;50.886;6.468;2022-12-29T09:15:42;7.42;;;1.60;;
27305;SDS011;14792;50.886;6.468;2022-12-29T09:18:44;6.08;;;1.12;;
27305;SDS011;14792;50.886;6.468;2022-12-29T09:21:45;4.72;;;1.20;;
27305;SDS011;14792;50.886;6.468;2022-12-29T09:24:47;9.15;;;1.52;;
27305;SDS011;14792;50.886;6.468;2022-12-29T09:27:48;7.78;;;1.77;;
27305;SDS011;14792;50.886;6.468;2022-12-29T09:30:50;9.80;;;1.60;;
27305;SDS011;14792;50.886;6.468;2022-12-29T09:33:52;6.15;;;1.57;;
27305;SDS011;14792;50.886;6.468;2022-12-29T09:36:53;13.65;;;2.10;;
27305;SDS011;14792;50.886;6.468;2022-12-29T09:39:55;4.55;;;1.42;;
27305;SDS011;14792;50.886;6.468;2022-12-29T09:46:31;6.97;;;1.37;;
27305;SDS011;14792;50.886;6.468;2022-12-29T09:49:38;11.15;;;1.80;;
27305;SDS011;14792;50.886;6.468;2022-12-29T09:52:48;11.60;;;1.62;;
27305;SDS011;14792;50.886;6.468;2022-12-29T09:55:49;7.53;;;1.85;;
27305;SDS011;14792;50.886;6.468;2022-12-29T09:59:10;8.80;;;2.37;;
27305;SDS011;14792;50.886;6.468;2022-12-29T10:05:45;9.80;;;1.70;;
27305;SDS011;14792;50.886;6.468;2022-12-29T10:08:57;9.93;;;1.37;;
27305;SDS011;14792;50.886;6.468;2022-12-29T10:15:18;10.68;;;1.90;;
27305;SDS011;14792;50.886;6.468;2022-12-29T10:18:20;7.47;;;1.55;;
27305;SDS011;14792;50.886;6.468;2022-12-29T10:24:58;8.00;;;1.80;;
27305;SDS011;14792;50.886;6.468;2022-12-29T10:28:00;15.00;;;2.15;;
27305;SDS011;14792;50.886;6.468;2022-12-29T10:31:01;8.23;;;1.40;;
27305;SDS011;14792;50.886;6.468;2022-12-29T10:34:03;11.08;;;1.87;;
27305;SDS011;14792;50.886;6.468;2022-12-29T10:37:09;8.83;;;1.60;;
27305;SDS011;14792;50.886;6.468;2022-12-29T10:40:29;8.25;;;1.65;;
27305;SDS011;14792;50.886;6.468;2022-12-29T10:46:39;12.65;;;1.40;;
27305;SDS011;14792;50.886;6.468;2022-12-29T10:49:41;10.08;;;1.62;;
27305;SDS011;14792;50.886;6.468;2022-12-29T10:52:42;6.08;;;1.47;;
27305;SDS011;14792;50.886;6.468;2022-12-29T10:55:44;10.72;;;2.10;;
27305;SDS011;14792;50.886;6.468;2022-12-29T10:58:46;12.07;;;1.95;;
27305;SDS011;14792;50.886;6.468;2022-12-29T11:01:53;6.85;;;1.20;;
27305;SDS011;14792;50.886;6.468;2022-12-29T11:08:17;10.10;;;2.27;;
27305;SDS011;14792;50.886;6.468;2022-12-29T11:11:23;11.85;;;2.00;;
27305;SDS011;14792;50.886;6.468;2022-12-29T11:14:27;14.65;;;1.90;;
27305;SDS011;14792;50.886;6.468;2022-12-29T11:17:27;12.50;;;1.52;;
27305;SDS011;14792;50.886;6.468;2022-12-29T11:20:31;8.88;;;1.87;;
27305;SDS011;14792;50.886;6.468;2022-12-29T11:23:32;8.68;;;1.80;;
27305;SDS011;14792;50.886;6.468;2022-12-29T11:26:32;12.70;;;2.22;;
27305;SDS011;14792;50.886;6.468;2022-12-29T11:29:37;12.95;;;1.72;;
27305;SDS011;14792;50.886;6.468;2022-12-29T11:32:39;13.13;;;1.70;;
27305;SDS011;14792;50.886;6.468;2022-12-29T11:35:41;12.33;;;1.75;;
27305;SDS011;14792;50.886;6.468;2022-12-29T11:38:48;12.65;;;1.30;;
27305;SDS011;14792;50.886;6.468;2022-12-29T11:41:52;7.10;;;1.55;;
27305;SDS011;14792;50.886;6.468;2022-12-29T11:44:53;9.10;;;1.67;;
27305;SDS011;14792;50.886;6.468;2022-12-29T11:48:31;4.90;;;1.45;;
27305;SDS011;14792;50.886;6.468;2022-12-29T11:51:09;11.70;;;2.42;;
27305;SDS011;14792;50.886;6.468;2022-12-29T11:54:13;11.97;;;1.72;;
27305;SDS011;14792;50.886;6.468;2022-12-29T11:57:15;8.95;;;2.17;;
27305;SDS011;14792;50.886;6.468;2022-12-29T12:00:18;10.88;;;1.80;;
27305;SDS011;14792;50.886;6.468;2022-12-29T12:03:22;12.93;;;2.33;;
27305;SDS011;14792;50.886;6.468;2022-12-29T12:06:22;12.20;;;2.05;;
27305;SDS011;14792;50.886;6.468;2022-12-29T12:09:25;8.45;;;1.80;;
27305;SDS011;14792;50.886;6.468;2022-12-29T12:12:38;14.15;;;1.77;;
27305;SDS011;14792;50.886;6.468;2022-12-29T12:15:44;14.55;;;2.80;;
27305;SDS011;14792;50.886;6.468;2022-12-29T12:18:45;8.78;;;1.60;;
27305;SDS011;14792;50.886;6.468;2022-12-29T12:21:50;8.83;;;1.57;;
27305;SDS011;14792;50.886;6.468;2022-12-29T12:25:01;8.45;;;1.55;;
27305;SDS011;14792;50.886;6.468;2022-12-29T12:40:39;8.13;;;1.87;;
27305;SDS011;14792;50.886;6.468;2022-12-29T12:50:18;9.83;;;1.90;;
27305;SDS011;14792;50.886;6.468;2022-12-29T12:53:26;13.70;;;2.52;;
27305;SDS011;14792;50.886;6.468;2022-12-29T12:56:43;8.33;;;1.87;;
27305;SDS011;14792;50.886;6.468;2022-12-29T12:59:55;8.53;;;1.62;;
27305;SDS011;14792;50.886;6.468;2022-12-29T13:06:12;7.97;;;1.87;;
27305;SDS011;14792;50.886;6.468;2022-12-29T13:09:23;11.28;;;1.75;;
27305;SDS011;14792;50.886;6.468;2022-12-29T13:18:45;10.53;;;2.02;;
27305;SDS011;14792;50.886;6.468;2022-12-29T13:21:56;13.93;;;2.10;;
27305;SDS011;14792;50.886;6.468;2022-12-29T13:25:08;7.42;;;1.32;;
27305;SDS011;14792;50.886;6.468;2022-12-29T13:28:27;5.85;;;1.27;;
27305;SDS011;14792;50.886;6.468;2022-12-29T13:31:32;6.80;;;1.40;;
27305;SDS011;14792;50.886;6.468;2022-12-29T13:34:35;7.37;;;1.35;;
27305;SDS011;14792;50.886;6.468;2022-12-29T13:40:56;8.03;;;1.30;;
27305;SDS011;14792;50.886;6.468;2022-12-29T13:43:57;9.95;;;1.45;;
27305;SDS011;14792;50.886;6.468;2022-12-29T13:47:00;9.33;;;1.27;;
27305;SDS011;14792;50.886;6.468;2022-12-29T13:50:01;8.40;;;1.40;;
27305;SDS011;14792;50.886;6.468;2022-12-29T13:53:06;5.80;;;1.22;;
27305;SDS011;14792;50.886;6.468;2022-12-29T13:59:19;5.28;;;1.22;;
27305;SDS011;14792;50.886;6.468;2022-12-29T14:02:46;6.78;;;1.15;;
27305;SDS011;14792;50.886;6.468;2022-12-29T14:06:01;5.05;;;1.35;;
27305;SDS011;14792;50.886;6.468;2022-12-29T14:08:48;7.62;;;1.72;;
27305;SDS011;14792;50.886;6.468;2022-12-29T14:11:50;5.83;;;1.30;;
27305;SDS011;14792;50.886;6.468;2022-12-29T14:14:51;3.55;;;1.20;;
27305;SDS011;14792;50.886;6.468;2022-12-29T14:18:03;6.40;;;1.75;;
27305;SDS011;14792;50.886;6.468;2022-12-29T14:24:28;6.85;;;1.27;;
27305;SDS011;14792;50.886;6.468;2022-12-29T14:27:42;11.22;;;1.45;;
27305;SDS011;14792;50.886;6.468;2022-12-29T14:30:48;6.22;;;1.15;;
27305;SDS011;14792;50.886;6.468;2022-12-29T14:37:21;9.58;;;1.45;;
27305;SDS011;14792;50.886;6.468;2022-12-29T14:40:16;7.67;;;1.60;;
27305;SDS011;14792;50.886;6.468;2022-12-29T14:43:28;7.67;;;1.52;;
27305;SDS011;14792;50.886;6.468;2022-12-29T14:46:54;8.60;;;1.77;;
27305;SDS011;14792;50.886;6.468;2022-12-29T14:49:47;6.85;;;1.25;;
27305;SDS011;14792;50.886;6.468;2022-12-29T14:52:49;8.83;;;1.82;;
27305;SDS011;14792;50.886;6.468;2022-12-29T14:55:56;15.53;;;2.40;;
27305;SDS011;14792;50.886;6.468;2022-12-29T14:59:01;8.48;;;1.90;;
27305;SDS011;14792;50.886;6.468;2022-12-29T15:02:04;9.23;;;1.80;;
27305;SDS011;14792;50.886;6.468;2022-12-29T15:05:04;7.28;;;2.22;;
27305;SDS011;14792;50.886;6.468;2022-12-29T15:08:06;9.75;;;1.80;;
27305;SDS011;14792;50.886;6.468;2022-12-29T15:11:15;6.90;;;1.85;;
27305;SDS011;14792;50.886;6.468;2022-12-29T15:14:27;7.78;;;1.82;;
27305;SDS011;14792;50.886;6.468;2022-12-29T15:17:32;14.53;;;2.50;;
27305;SDS011;14792;50.886;6.468;2022-12-29T15:20:33;10.40;;;1.82;;
27305;SDS011;14792;50.886;6.468;2022-12-29T15:23:35;15.13;;;2.75;;
27305;SDS011;14792;50.886;6.468;2022-12-29T15:26:40;9.45;;;2.15;;
27305;SDS011;14792;50.886;6.468;2022-12-29T15:29:42;11.08;;;2.20;;
27305;SDS011;14792;50.886;6.468;2022-12-29T15:32:43;12.05;;;3.10;;
27305;SDS011;14792;50.886;6.468;2022-12-29T15:35:44;11.45;;;2.90;;
27305;SDS011;14792;50.886;6.468;2022-12-29T15:38:45;16.10;;;3.05;;
27305;SDS011;14792;50.886;6.468;2022-12-29T15:41:59;15.48;;;3.72;;
27305;SDS011;14792;50.886;6.468;2022-12-29T15:45:02;18.42;;;3.85;;
27305;SDS011;14792;50.886;6.468;2022-12-29T15:48:01;14.30;;;2.33;;
27305;SDS011;14792;50.886;6.468;2022-12-29T15:51:03;13.68;;;2.02;;
27305;SDS011;14792;50.886;6.468;2022-12-29T15:54:04;11.90;;;2.17;;
27305;SDS011;14792;50.886;6.468;2022-12-29T15:57:10;10.88;;;3.25;;
27305;SDS011;14792;50.886;6.468;2022-12-29T16:00:23;10.35;;;2.02;;
27305;SDS011;14792;50.886;6.468;2022-12-29T16:03:21;12.07;;;2.20;;
27305;SDS011;14792;50.886;6.468;2022-12-29T16:06:30;10.32;;;2.10;;
27305;SDS011;14792;50.886;6.468;2022-12-29T16:09:32;11.00;;;2.02;;
27305;SDS011;14792;50.886;6.468;2022-12-29T16:12:33;11.83;;;2.95;;
27305;SDS011;14792;50.886;6.468;2022-12-29T16:15:36;13.75;;;2.50;;
27305;SDS011;14792;50.886;6.468;2022-12-29T16:18:38;8.85;;;1.95;;
27305;SDS011;14792;50.886;6.468;2022-12-29T16:21:39;13.32;;;2.02;;
27305;SDS011;14792;50.886;6.468;2022-12-29T16:24:41;13.60;;;2.27;;
27305;SDS011;14792;50.886;6.468;2022-12-29T16:27:43;13.70;;;2.30;;
27305;SDS011;14792;50.886;6.468;2022-12-29T16:30:44;9.78;;;2.40;;
27305;SDS011;14792;50.886;6.468;2022-12-29T16:33:47;11.88;;;2.55;;
27305;SDS011;14792;50.886;6.468;2022-12-29T16:36:58;17.82;;;2.87;;
27305;SDS011;14792;50.886;6.468;2022-12-29T16:46:32;16.62;;;3.40;;
27305;SDS011;14792;50.886;6.468;2022-12-29T16:49:34;13.32;;;3.35;;
27305;SDS011;14792;50.886;6.468;2022-12-29T16:52:35;11.45;;;3.40;;
27305;SDS011;14792;50.886;6.468;2022-12-29T16:55:37;9.33;;;2.98;;
27305;SDS011;14792;50.886;6.468;2022-12-29T16:58:39;19.60;;;3.80;;
27305;SDS011;14792;50.886;6.468;2022-12-29T17:01:40;17.85;;;4.15;;
27305;SDS011;14792;50.886;6.468;2022-12-29T17:04:42;19.65;;;3.22;;
27305;SDS011;14792;50.886;6.468;2022-12-29T17:07:44;12.03;;;2.62;;
27305;SDS011;14792;50.886;6.468;2022-12-29T17:10:45;16.00;;;2.92;;
27305;SDS011;14792;50.886;6.468;2022-12-29T17:14:05;16.42;;;3.40;;
27305;SDS011;14792;50.886;6.468;2022-12-29T17:17:11;18.42;;;3.08;;
27305;SDS011;14792;50.886;6.468;2022-12-29T17:20:15;12.73;;;2.65;;
27305;SDS011;14792;50.886;6.468;2022-12-29T17:23:18;15.38;;;3.00;;
27305;SDS011;14792;50.886;6.468;2022-12-29T17:26:19;18.07;;;3.17;;
27305;SDS011;14792;50.886;6.468;2022-12-29T17:32:28;17.45;;;3.58;;
27305;SDS011;14792;50.886;6.468;2022-12-29T17:35:30;15.25;;;3.15;;
27305;SDS011;14792;50.886;6.468;2022-12-29T17:38:34;14.40;;;3.45;;
27305;SDS011;14792;50.886;6.468;2022-12-29T17:41:34;15.78;;;3.15;;
27305;SDS011;14792;50.886;6.468;2022-12-29T17:44:35;18.95;;;3.42;;
27305;SDS011;14792;50.886;6.468;2022-12-29T17:47:36;17.30;;;3.25;;
27305;SDS011;14792;50.886;6.468;2022-12-29T17:50:38;18.30;;;3.72;;
27305;SDS011;14792;50.886;6.468;2022-12-29T17:53:39;16.95;;;3.62;;
27305;SDS011;14792;50.886;6.468;2022-12-29T17:56:41;17.70;;;3.40;;
27305;SDS011;14792;50.886;6.468;2022-12-29T17:59:43;21.50;;;3.17;;
27305;SDS011;14792;50.886;6.468;2022-12-29T18:02:44;17.85;;;3.25;;
27305;SDS011;14792;50.886;6.468;2022-12-29T18:05:46;18.10;;;3.12;;
27305;SDS011;14792;50.886;6.468;2022-12-29T18:08:47;17.87;;;2.87;;
27305;SDS011;14792;50.886;6.468;2022-12-29T18:11:49;15.88;;;3.60;;
27305;SDS011;14792;50.886;6.468;2022-12-29T18:14:51;24.23;;;3.65;;
27305;SDS011;14792;50.886;6.468;2022-12-29T18:17:59;24.32;;;3.95;;
27305;SDS011;14792;50.886;6.468;2022-12-29T18:21:02;20.57;;;3.75;;
27305;SDS011;14792;50.886;6.468;2022-12-29T18:24:04;21.37;;;4.00;;
27305;SDS011;14792;50.886;6.468;2022-12-29T18:27:12;23.80;;;4.37;;
27305;SDS011;14792;50.886;6.468;2022-12-29T18:30:13;21.68;;;3.80;;
27305;SDS011;14792;50.886;6.468;2022-12-29T18:33:15;15.38;;;2.92;;
27305;SDS011;14792;50.886;6.468;2022-12-29T18:36:16;16.87;;;3.65;;
27305;SDS011;14792;50.886;6.468;2022-12-29T18:39:17;16.70;;;2.85;;
27305;SDS011;14792;50.886;6.468;2022-12-29T18:42:19;20.30;;;3.37;;
27305;SDS011;14792;50.886;6.468;2022-12-29T18:45:21;16.07;;;3.27;;
27305;SDS011;14792;50.886;6.468;2022-12-29T18:48:22;14.28;;;2.85;;
27305;SDS011;14792;50.886;6.468;2022-12-29T18:51:24;16.02;;;3.10;;
27305;SDS011;14792;50.886;6.468;2022-12-29T18:54:29;14.10;;;3.25;;
27305;SDS011;14792;50.886;6.468;2022-12-29T19:00:29;17.40;;;3.70;;
27305;SDS011;14792;50.886;6.468;2022-12-29T19:03:30;16.52;;;3.52;;
27305;SDS011;14792;50.886;6.468;2022-12-29T19:06:32;12.10;;;2.67;;
27305;SDS011;14792;50.886;6.468;2022-12-29T19:09:33;12.40;;;2.70;;
27305;SDS011;14792;50.886;6.468;2022-12-29T19:12:35;13.58;;;2.90;;
27305;SDS011;14792;50.886;6.468;2022-12-29T19:15:36;13.72;;;2.67;;
27305;SDS011;14792;50.886;6.468;2022-12-29T19:18:38;15.88;;;3.20;;
27305;SDS011;14792;50.886;6.468;2022-12-29T19:21:40;11.35;;;3.22;;
27305;SDS011;14792;50.886;6.468;2022-12-29T19:24:41;16.00;;;2.87;;
27305;SDS011;14792;50.886;6.468;2022-12-29T19:27:43;14.50;;;2.55;;
27305;SDS011;14792;50.886;6.468;2022-12-29T19:30:45;8.70;;;2.17;;
27305;SDS011;14792;50.886;6.468;2022-12-29T19:33:46;12.40;;;3.90;;
27305;SDS011;14792;50.886;6.468;2022-12-29T19:36:48;18.15;;;3.83;;
27305;SDS011;14792;50.886;6.468;2022-12-29T19:39:49;15.68;;;3.08;;
27305;SDS011;14792;50.886;6.468;2022-12-29T19:42:51;13.45;;;2.85;;
27305;SDS011;14792;50.886;6.468;2022-12-29T19:45:52;13.60;;;2.90;;
27305;SDS011;14792;50.886;6.468;2022-12-29T19:48:54;12.05;;;2.67;;
27305;SDS011;14792;50.886;6.468;2022-12-29T19:51:59;17.20;;;3.90;;
27305;SDS011;14792;50.886;6.468;2022-12-29T19:55:00;14.53;;;3.10;;
27305;SDS011;14792;50.886;6.468;2022-12-29T19:58:02;17.05;;;2.80;;